createdAt,value
2023-03-19T00:02:17.192Z,1.00
2023-03-19T00:04:46.188Z,0.80
2023-03-19T00:07:14.908Z,1.30
2023-03-19T00:09:44.249Z,1.00
2023-03-19T00:12:12.054Z,1.13
2023-03-19T00:14:38.646Z,1.10
2023-03-19T00:17:05.201Z,1.23
2023-03-19T00:19:31.654Z,1.20
2023-03-19T00:22:02.111Z,1.00
2023-03-19T00:24:29.084Z,1.03
2023-03-19T00:26:55.943Z,0.70
2023-03-19T00:29:23.325Z,1.40
2023-03-19T00:31:50.576Z,1.10
2023-03-19T00:34:19.932Z,1.10
2023-03-19T00:36:47.004Z,1.30
2023-03-19T00:39:13.513Z,1.30
2023-03-19T00:41:40.574Z,1.50
2023-03-19T00:44:07.944Z,1.17
2023-03-19T00:46:34.413Z,1.30
2023-03-19T00:49:07.942Z,1.20
2023-03-19T00:51:34.419Z,1.33
2023-03-19T00:54:00.833Z,0.80
2023-03-19T00:56:27.282Z,1.13
2023-03-19T00:58:53.751Z,1.30
2023-03-19T01:01:20.259Z,1.30
2023-03-19T01:03:47.428Z,1.47
2023-03-19T01:06:16.440Z,1.10
2023-03-19T01:08:43.016Z,1.17
2023-03-19T01:11:14.305Z,1.30
2023-03-19T01:13:42.297Z,0.97
2023-03-19T01:16:11.539Z,1.30
2023-03-19T01:18:38.293Z,1.47
2023-03-19T01:21:05.292Z,1.00
2023-03-19T01:23:31.908Z,1.30
2023-03-19T01:25:58.347Z,0.93
2023-03-19T01:28:24.948Z,1.47
2023-03-19T01:30:54.992Z,1.70
2023-03-19T01:33:23.119Z,1.13
2023-03-19T01:35:51.397Z,1.17
2023-03-19T01:38:18.106Z,1.20
2023-03-19T01:40:46.152Z,1.27
2023-03-19T01:43:17.794Z,1.13
2023-03-19T01:45:45.448Z,1.30
2023-03-19T01:48:35.004Z,1.13
2023-03-19T01:51:01.870Z,1.40
2023-03-19T01:53:32.881Z,1.17
2023-03-19T01:56:24.510Z,1.17
2023-03-19T01:58:56.610Z,0.80
2023-03-19T02:01:23.503Z,1.30
2023-03-19T02:03:52.991Z,1.43
2023-03-19T02:06:23.747Z,1.20
2023-03-19T02:08:51.735Z,1.30
2023-03-19T02:11:19.177Z,1.40
2023-03-19T02:13:46.945Z,0.93
2023-03-19T02:16:16.952Z,1.03
2023-03-19T02:18:44.327Z,1.07
2023-03-19T02:21:17.541Z,0.90
2023-03-19T02:24:13.075Z,2.03
2023-03-19T02:26:43.220Z,1.33
2023-03-19T02:29:09.900Z,1.33
2023-03-19T02:31:37.118Z,1.37
2023-03-19T02:34:26.625Z,1.10
2023-03-19T02:37:02.912Z,1.43
2023-03-19T02:39:49.504Z,1.00
2023-03-19T02:42:18.585Z,1.13
2023-03-19T02:44:46.256Z,1.47
2023-03-19T02:47:12.793Z,1.30
2023-03-19T02:49:39.268Z,1.50
2023-03-19T02:52:05.799Z,1.23
2023-03-19T02:54:38.905Z,1.40
2023-03-19T02:57:05.617Z,1.80
2023-03-19T02:59:32.141Z,1.87
2023-03-19T03:01:58.726Z,1.00
2023-03-19T03:04:26.373Z,0.90
2023-03-19T03:06:52.851Z,1.93
2023-03-19T03:09:19.515Z,1.97
2023-03-19T03:11:46.127Z,1.20
2023-03-19T03:14:12.611Z,1.40
2023-03-19T03:16:39.157Z,1.13
2023-03-19T03:19:05.945Z,1.20
2023-03-19T03:21:35.462Z,1.63
2023-03-19T03:24:03.365Z,1.77
2023-03-19T03:26:29.790Z,1.53
2023-03-19T03:28:56.825Z,1.77
2023-03-19T03:31:23.374Z,1.77
2023-03-19T03:33:50.342Z,1.73
2023-03-19T03:36:17.580Z,1.60
2023-03-19T03:38:45.544Z,2.00
2023-03-19T03:41:14.132Z,1.67
2023-03-19T03:43:41.150Z,1.40
2023-03-19T03:46:08.746Z,2.00
2023-03-19T03:48:35.852Z,1.73
2023-03-19T03:51:03.253Z,1.73
2023-03-19T03:53:30.316Z,2.30
2023-03-19T03:56:00.861Z,1.67
2023-03-19T03:58:27.973Z,2.10
2023-03-19T04:00:55.509Z,1.30
2023-03-19T04:03:22.516Z,1.93
2023-03-19T04:05:49.043Z,1.50
2023-03-19T04:08:15.949Z,1.60
2023-03-19T04:10:46.043Z,2.00
2023-03-19T04:13:13.170Z,1.70
2023-03-19T04:15:51.357Z,2.00
2023-03-19T04:18:17.808Z,2.10
2023-03-19T04:20:44.290Z,1.30
2023-03-19T04:23:10.980Z,1.67
2023-03-19T04:25:41.174Z,1.33
2023-03-19T04:28:11.340Z,1.37
2023-03-19T04:30:38.187Z,1.73
2023-03-19T04:33:04.948Z,2.00
2023-03-19T04:35:31.749Z,2.07
2023-03-19T04:37:58.250Z,1.33
2023-03-19T04:40:25.137Z,1.57
2023-03-19T04:42:52.753Z,1.50
2023-03-19T04:45:21.672Z,1.17
2023-03-19T04:47:48.150Z,1.43
2023-03-19T04:50:14.773Z,1.60
2023-03-19T04:52:41.651Z,1.30
2023-03-19T04:55:08.934Z,1.50
2023-03-19T04:57:36.927Z,1.50
2023-03-19T05:00:03.662Z,1.47
2023-03-19T05:02:30.062Z,1.57
2023-03-19T05:04:56.581Z,1.40
2023-03-19T05:07:22.999Z,1.20
2023-03-19T05:09:50.102Z,1.50
2023-03-19T05:12:21.432Z,1.83
2023-03-19T05:14:48.043Z,1.57
2023-03-19T05:17:15.596Z,1.27
2023-03-19T05:19:42.439Z,1.63
2023-03-19T05:22:08.966Z,1.90
2023-03-19T05:24:35.441Z,2.03
2023-03-19T05:27:07.582Z,1.57
2023-03-19T05:29:34.316Z,2.10
2023-03-19T05:32:03.166Z,1.77
2023-03-19T05:34:30.133Z,1.43
2023-03-19T05:36:56.589Z,1.90
2023-03-19T05:39:24.813Z,1.80
2023-03-19T05:41:51.605Z,1.57
2023-03-19T05:44:18.127Z,1.60
2023-03-19T05:46:44.747Z,1.93
2023-03-19T05:49:11.201Z,2.10
2023-03-19T05:51:37.646Z,2.23
2023-03-19T05:54:05.705Z,2.10
2023-03-19T05:56:33.120Z,1.90
2023-03-19T05:58:59.588Z,2.00
2023-03-19T06:01:36.804Z,1.70
2023-03-19T06:04:05.610Z,2.30
2023-03-19T06:06:32.716Z,1.40
2023-03-19T06:08:59.327Z,1.93
2023-03-19T06:11:25.906Z,2.33
2023-03-19T06:13:54.670Z,2.00
2023-03-19T06:16:21.347Z,1.93
2023-03-19T06:18:47.814Z,1.87
2023-03-19T06:21:14.279Z,1.93
2023-03-19T06:23:40.765Z,1.53
2023-03-19T06:26:07.318Z,1.50
2023-03-19T06:28:41.582Z,1.53
2023-03-19T06:31:08.145Z,1.63
2023-03-19T06:33:34.697Z,1.57
2023-03-19T06:36:01.472Z,1.80
2023-03-19T06:38:28.061Z,1.23
2023-03-19T06:40:57.128Z,1.90
2023-03-19T06:43:27.484Z,1.60
2023-03-19T06:45:54.196Z,1.50
2023-03-19T06:48:20.758Z,1.67
2023-03-19T06:50:47.225Z,1.40
2023-03-19T06:53:14.901Z,1.63
2023-03-19T06:55:47.864Z,1.93
2023-03-19T06:58:14.412Z,1.40
2023-03-19T07:00:41.382Z,1.40
2023-03-19T07:03:08.459Z,1.60
2023-03-19T07:05:34.956Z,1.17
2023-03-19T07:08:03.757Z,1.57
2023-03-19T07:10:30.960Z,2.33
2023-03-19T07:12:57.444Z,1.30
2023-03-19T07:15:23.865Z,1.13
2023-03-19T07:17:50.376Z,1.60
2023-03-19T07:20:17.031Z,1.37
2023-03-19T07:22:50.795Z,1.17
2023-03-19T07:25:17.441Z,1.00
2023-03-19T07:27:44.966Z,1.67
2023-03-19T07:30:12.924Z,1.53
2023-03-19T07:32:39.529Z,2.10
2023-03-19T07:35:16.746Z,1.40
2023-03-19T07:37:43.223Z,1.97
2023-03-19T07:40:10.487Z,1.40
2023-03-19T07:42:37.012Z,1.90
2023-03-19T07:45:11.014Z,1.50
2023-03-19T07:47:40.248Z,1.40
2023-03-19T07:50:07.967Z,1.30
2023-03-19T07:52:34.519Z,1.20
2023-03-19T07:55:01.649Z,1.37
2023-03-19T07:57:32.924Z,1.10
2023-03-19T07:59:59.842Z,1.53
2023-03-19T08:02:26.430Z,1.70
2023-03-19T08:04:52.991Z,1.00
2023-03-19T08:07:20.259Z,1.70
2023-03-19T08:09:46.739Z,1.67
2023-03-19T08:12:21.310Z,1.50
2023-03-19T08:14:47.817Z,1.50
2023-03-19T08:17:14.310Z,0.97
2023-03-19T08:19:40.837Z,1.00
2023-03-19T08:22:07.405Z,1.30
2023-03-19T08:24:39.237Z,0.97
2023-03-19T08:27:05.807Z,1.00
2023-03-19T08:29:32.323Z,1.00
2023-03-19T08:32:00.715Z,1.10
2023-03-19T08:34:27.308Z,1.33
2023-03-19T08:36:56.028Z,1.87
2023-03-19T08:39:22.479Z,0.90
2023-03-19T08:41:48.926Z,1.20
2023-03-19T08:44:16.366Z,1.40
2023-03-19T08:46:42.866Z,1.00
2023-03-19T08:49:11.902Z,1.10
2023-03-19T08:51:38.434Z,1.17
2023-03-19T08:54:04.971Z,1.10
2023-03-19T08:56:31.421Z,1.33
2023-03-19T08:58:58.044Z,1.00
2023-03-19T09:01:24.755Z,1.30
2023-03-19T09:03:51.267Z,1.37
2023-03-19T09:06:17.837Z,0.80
2023-03-19T09:08:44.815Z,1.53
2023-03-19T09:11:11.659Z,1.30
2023-03-19T09:13:38.276Z,1.20
2023-03-19T09:16:05.914Z,1.30
2023-03-19T09:18:33.544Z,1.20
2023-03-19T09:21:00.840Z,1.40
2023-03-19T09:23:28.123Z,1.37
2023-03-19T09:25:55.012Z,1.90
2023-03-19T09:28:22.993Z,1.93
2023-03-19T09:30:51.679Z,2.07
2023-03-19T09:33:20.330Z,1.90
2023-03-19T09:35:57.344Z,1.43
2023-03-19T09:38:24.208Z,2.20
2023-03-19T09:41:08.319Z,1.53
2023-03-19T09:43:51.961Z,1.23
2023-03-19T09:46:23.571Z,3.40
2023-03-19T09:49:00.067Z,1.40
2023-03-19T09:51:35.868Z,2.00
2023-03-19T09:54:07.667Z,1.50
2023-03-19T09:56:34.267Z,1.43
2023-03-19T09:59:01.102Z,1.30
2023-03-19T10:01:34.238Z,1.93
2023-03-19T10:04:54.895Z,1.40
2023-03-19T10:07:27.557Z,1.43
2023-03-19T10:10:22.450Z,2.23
2023-03-19T10:13:00.344Z,1.40
2023-03-19T10:15:37.891Z,2.07
2023-03-19T10:18:14.651Z,1.20
2023-03-19T10:21:00.098Z,1.60
2023-03-19T10:23:34.975Z,1.40
2023-03-19T10:26:05.512Z,1.73
2023-03-19T10:28:32.244Z,1.40
2023-03-19T10:31:14.912Z,1.70
2023-03-19T10:33:52.149Z,1.03
2023-03-19T10:36:22.362Z,1.53
2023-03-19T10:38:48.876Z,2.60
2023-03-19T10:41:41.218Z,1.00
2023-03-19T10:44:17.216Z,1.90
2023-03-19T10:46:43.782Z,1.30
2023-03-19T10:49:15.103Z,1.40
2023-03-19T10:51:49.104Z,1.03
2023-03-19T10:54:24.524Z,1.60
2023-03-19T10:56:54.891Z,1.30
2023-03-19T10:59:26.855Z,1.30
2023-03-19T11:02:15.744Z,1.57
2023-03-19T11:04:42.229Z,1.50
2023-03-19T11:07:22.289Z,1.53
2023-03-19T11:09:51.539Z,1.40
2023-03-19T11:12:26.977Z,1.67
2023-03-19T11:14:57.550Z,1.57
2023-03-19T11:17:26.459Z,1.73
2023-03-19T11:19:58.145Z,1.10
2023-03-19T11:22:37.115Z,1.90
2023-03-19T11:25:19.536Z,1.23
2023-03-19T11:28:01.181Z,1.30
2023-03-19T11:30:36.892Z,1.30
2023-03-19T11:33:39.042Z,1.10
2023-03-19T11:36:09.218Z,1.70
2023-03-19T11:39:00.479Z,1.27
2023-03-19T11:41:27.366Z,1.03
2023-03-19T11:44:14.741Z,0.83
2023-03-19T11:46:55.608Z,0.77
2023-03-19T11:49:53.501Z,0.73
2023-03-19T11:52:28.360Z,1.10
2023-03-19T11:55:35.671Z,1.20
2023-03-19T11:58:25.619Z,1.40
2023-03-19T12:00:55.191Z,0.80
2023-03-19T12:03:51.006Z,1.23
2023-03-19T12:06:43.529Z,0.70
2023-03-19T12:09:39.490Z,1.00
2023-03-19T12:12:33.947Z,0.70
2023-03-19T12:15:15.690Z,1.03
2023-03-19T12:18:20.364Z,0.67
2023-03-19T12:21:06.655Z,0.90
2023-03-19T12:24:03.560Z,0.87
2023-03-19T12:26:32.683Z,0.63
2023-03-19T12:29:18.486Z,0.80
2023-03-19T12:32:02.301Z,0.83
2023-03-19T12:34:36.580Z,1.00
2023-03-19T12:37:37.761Z,0.77
2023-03-19T12:40:22.376Z,0.80
2023-03-19T12:42:49.090Z,1.10
2023-03-19T12:45:35.252Z,1.00
2023-03-19T12:48:10.329Z,0.70
2023-03-19T12:50:41.707Z,0.90
2023-03-19T12:53:16.915Z,0.90
2023-03-19T12:55:49.747Z,0.50
2023-03-19T12:58:46.944Z,0.63
2023-03-19T13:01:25.149Z,0.73
2023-03-19T13:04:03.367Z,0.60
2023-03-19T13:06:41.363Z,0.83
2023-03-19T13:09:20.234Z,0.70
2023-03-19T13:12:01.588Z,0.67
2023-03-19T13:14:38.312Z,0.70
2023-03-19T13:17:15.208Z,0.60
2023-03-19T13:19:54.361Z,0.80
2023-03-19T13:22:32.263Z,0.80
2023-03-19T13:25:00.910Z,0.83
2023-03-19T13:27:31.898Z,0.43
2023-03-19T13:30:07.437Z,0.57
2023-03-19T13:32:50.853Z,0.77
2023-03-19T13:35:32.216Z,0.60
2023-03-19T13:38:27.849Z,0.80
2023-03-19T13:40:59.272Z,0.87
2023-03-19T13:43:29.136Z,0.60
2023-03-19T13:46:15.983Z,0.67
2023-03-19T13:48:45.556Z,0.57
2023-03-19T13:51:18.159Z,1.00
2023-03-19T13:54:12.670Z,0.70
2023-03-19T13:57:01.521Z,0.40
2023-03-19T13:59:29.774Z,0.60
2023-03-19T14:01:57.774Z,0.93
2023-03-19T14:04:36.716Z,0.70
2023-03-19T14:07:15.490Z,1.00
2023-03-19T14:09:44.870Z,0.87
2023-03-19T14:12:23.527Z,0.40
2023-03-19T14:14:52.459Z,0.70
2023-03-19T14:17:25.237Z,0.60
2023-03-19T14:19:53.148Z,0.60
2023-03-19T14:22:40.086Z,0.73
2023-03-19T14:25:18.684Z,0.70
2023-03-19T14:27:48.241Z,0.50
2023-03-19T14:30:34.625Z,0.90
2023-03-19T14:33:08.512Z,1.30
2023-03-19T14:35:46.037Z,0.70
2023-03-19T14:38:30.373Z,0.75
2023-03-19T14:41:01.093Z,0.90
2023-03-19T14:43:52.658Z,0.70
2023-03-19T14:46:50.202Z,0.80
2023-03-19T14:49:51.387Z,0.55
2023-03-19T14:52:26.631Z,0.75
2023-03-19T14:55:00.948Z,0.95
2023-03-19T14:57:30.605Z,0.70
2023-03-19T15:00:00.592Z,0.83
2023-03-19T15:02:35.073Z,1.30
2023-03-19T15:05:07.740Z,0.80
2023-03-19T15:07:49.163Z,0.60
2023-03-19T15:10:21.265Z,0.80
2023-03-19T15:13:09.706Z,1.00
2023-03-19T15:15:59.570Z,0.82
2023-03-19T15:18:27.346Z,0.60
2023-03-19T15:20:55.506Z,0.57
2023-03-19T15:23:27.937Z,0.88
2023-03-19T15:26:01.124Z,1.00
2023-03-19T15:28:36.358Z,0.65
2023-03-19T15:31:28.390Z,0.82
2023-03-19T15:33:53.553Z,0.83
2023-03-19T15:36:30.587Z,0.67
2023-03-19T15:39:11.410Z,0.90
2023-03-19T15:41:44.515Z,0.70
2023-03-19T15:44:18.968Z,0.50
2023-03-19T15:46:47.182Z,0.90
2023-03-19T15:49:23.184Z,0.50
2023-03-19T15:51:53.642Z,0.63
2023-03-19T15:54:21.002Z,0.90
2023-03-19T15:56:50.508Z,0.70
2023-03-19T15:59:20.582Z,0.80
2023-03-19T16:01:47.325Z,0.97
2023-03-19T16:04:22.035Z,0.43
2023-03-19T16:06:50.825Z,0.30
2023-03-19T16:09:24.146Z,0.53
2023-03-19T16:11:53.032Z,0.60
2023-03-19T16:14:35.335Z,0.60
2023-03-19T16:17:13.093Z,0.33
2023-03-19T16:19:52.542Z,0.60
2023-03-19T16:22:29.789Z,0.70
2023-03-19T16:24:57.449Z,0.40
2023-03-19T16:27:40.793Z,0.53
2023-03-19T16:30:22.603Z,0.93
2023-03-19T16:33:06.464Z,0.80
2023-03-19T16:35:34.991Z,0.93
2023-03-19T16:38:18.781Z,0.90
2023-03-19T16:40:49.196Z,0.60
2023-03-19T16:43:22.467Z,0.70
2023-03-19T16:46:10.846Z,0.60
2023-03-19T16:48:37.433Z,0.73
2023-03-19T16:51:05.178Z,0.77
2023-03-19T16:53:32.126Z,0.80
2023-03-19T16:56:00.822Z,0.60
2023-03-19T16:58:40.734Z,1.43
2023-03-19T17:01:27.340Z,0.90
2023-03-19T17:03:54.130Z,1.00
2023-03-19T17:06:22.108Z,0.63
2023-03-19T17:08:48.568Z,1.40
2023-03-19T17:11:35.236Z,1.90
2023-03-19T17:14:03.437Z,1.10
2023-03-19T17:16:30.222Z,0.77
2023-03-19T17:19:07.274Z,0.70
2023-03-19T17:21:34.194Z,0.80
2023-03-19T17:24:25.995Z,1.00
2023-03-19T17:26:53.078Z,0.90
2023-03-19T17:29:20.851Z,0.60
2023-03-19T17:31:48.073Z,0.80
2023-03-19T17:34:26.839Z,2.13
2023-03-19T17:37:10.419Z,0.73
2023-03-19T17:39:39.186Z,0.70
2023-03-19T17:42:25.436Z,1.17
2023-03-19T17:44:52.198Z,0.87
2023-03-19T17:47:19.090Z,0.60
2023-03-19T17:49:46.164Z,1.70
2023-03-19T17:52:17.713Z,1.50
2023-03-19T17:54:45.044Z,1.43
2023-03-19T17:57:13.993Z,1.50
2023-03-19T17:59:40.630Z,1.50
2023-03-19T18:02:23.141Z,1.10
2023-03-19T18:04:52.010Z,0.80
2023-03-19T18:07:19.047Z,0.80
2023-03-19T18:09:45.865Z,0.90
2023-03-19T18:12:12.278Z,0.70
2023-03-19T18:14:38.717Z,0.80
2023-03-19T18:17:05.349Z,0.77
2023-03-19T18:19:34.939Z,0.77
2023-03-19T18:22:02.325Z,1.40
2023-03-19T18:24:28.806Z,1.00
2023-03-19T18:26:55.379Z,1.23
2023-03-19T18:29:21.838Z,0.83
2023-03-19T18:31:50.391Z,0.77
2023-03-19T18:34:17.851Z,1.00
2023-03-19T18:36:44.395Z,0.70
2023-03-19T18:39:13.913Z,0.80
2023-03-19T18:41:41.037Z,1.17
2023-03-19T18:44:08.676Z,0.80
2023-03-19T18:46:37.279Z,1.00
2023-03-19T18:49:07.046Z,0.43
2023-03-19T18:51:35.869Z,1.03
2023-03-19T18:54:02.430Z,0.87
2023-03-19T18:56:33.467Z,1.00
2023-03-19T18:59:01.038Z,1.17
2023-03-19T19:01:29.883Z,0.73
2023-03-19T19:03:56.503Z,1.07
2023-03-19T19:06:40.062Z,1.00
2023-03-19T19:09:12.787Z,1.10
2023-03-19T19:11:45.788Z,0.83
2023-03-19T19:14:21.932Z,0.70
2023-03-19T19:16:49.152Z,0.77
2023-03-19T19:19:19.139Z,1.40
2023-03-19T19:21:46.496Z,0.80
2023-03-19T19:24:14.921Z,0.63
2023-03-19T19:26:48.991Z,0.70
2023-03-19T19:29:28.367Z,0.70
2023-03-19T19:32:04.026Z,0.77
2023-03-19T19:34:30.570Z,0.50
2023-03-19T19:37:00.287Z,0.80
2023-03-19T19:39:27.039Z,0.73
2023-03-19T19:41:56.817Z,0.57
2023-03-19T19:44:23.341Z,0.60
2023-03-19T19:46:53.298Z,0.70
2023-03-19T19:49:21.515Z,0.70
2023-03-19T19:51:47.951Z,0.50
2023-03-19T19:54:14.375Z,0.80
2023-03-19T19:56:41.487Z,1.10
2023-03-19T19:59:13.809Z,1.03
2023-03-19T20:01:40.480Z,1.03
2023-03-19T20:04:07.029Z,0.70
2023-03-19T20:06:36.532Z,0.90
2023-03-19T20:09:03.048Z,0.63
2023-03-19T20:11:31.386Z,0.80
2023-03-19T20:13:57.948Z,1.03
2023-03-19T20:16:26.629Z,1.07
2023-03-19T20:18:55.944Z,0.77
2023-03-19T20:21:24.066Z,0.97
2023-03-19T20:23:55.234Z,0.90
2023-03-19T20:26:24.046Z,1.20
2023-03-19T20:28:51.517Z,0.90
2023-03-19T20:31:27.939Z,1.30
2023-03-19T20:33:54.429Z,1.10
2023-03-19T20:36:21.053Z,1.20
2023-03-19T20:38:50.961Z,1.70
2023-03-19T20:41:20.723Z,1.40
2023-03-19T20:43:47.986Z,1.10
2023-03-19T20:46:15.980Z,1.13
2023-03-19T20:48:45.065Z,1.30
2023-03-19T20:51:19.445Z,1.50
2023-03-19T20:53:53.740Z,1.10
2023-03-19T20:56:24.826Z,1.27
2023-03-19T20:58:51.788Z,1.07
2023-03-19T21:01:18.608Z,1.00
2023-03-19T21:03:45.333Z,1.30
2023-03-19T21:06:18.460Z,1.23
2023-03-19T21:08:47.712Z,1.00
2023-03-19T21:11:20.516Z,1.00
2023-03-19T21:13:48.992Z,1.40
2023-03-19T21:16:18.375Z,0.93
2023-03-19T21:18:45.383Z,1.00
2023-03-19T21:21:14.761Z,0.97
2023-03-19T21:23:55.530Z,1.93
2023-03-19T21:26:23.185Z,0.73
2023-03-19T21:28:53.660Z,0.80
2023-03-19T21:31:24.275Z,0.70
2023-03-19T21:33:51.626Z,1.03
2023-03-19T21:36:18.847Z,1.20
2023-03-19T21:38:45.644Z,1.27
2023-03-19T21:41:24.423Z,0.90
2023-03-19T21:43:57.305Z,1.23
2023-03-19T21:46:26.404Z,1.10
2023-03-19T21:48:55.197Z,0.83
2023-03-19T21:51:27.845Z,1.57
2023-03-19T21:53:54.517Z,1.40
2023-03-19T21:56:24.238Z,1.10
2023-03-19T21:58:52.731Z,1.30
2023-03-19T22:01:24.787Z,1.20
2023-03-19T22:03:57.600Z,1.43
2023-03-19T22:06:25.224Z,2.43
2023-03-19T22:08:54.064Z,1.60
2023-03-19T22:11:34.485Z,1.50
2023-03-19T22:14:25.519Z,1.43
2023-03-19T22:16:56.321Z,1.13
2023-03-19T22:19:23.140Z,1.40
2023-03-19T22:21:49.684Z,1.40
2023-03-19T22:24:16.189Z,1.50
2023-03-19T22:26:46.437Z,1.40
2023-03-19T22:29:23.584Z,1.20
2023-03-19T22:31:51.935Z,1.60
2023-03-19T22:34:30.052Z,2.10
2023-03-19T22:36:56.704Z,1.37
2023-03-19T22:39:23.208Z,1.20
2023-03-19T22:41:50.035Z,1.53
2023-03-19T22:44:25.444Z,1.37
2023-03-19T22:46:53.087Z,2.00
2023-03-19T22:49:19.545Z,1.00
2023-03-19T22:51:46.330Z,1.73
2023-03-19T22:54:13.154Z,1.03
2023-03-19T22:56:39.705Z,1.40
2023-03-19T22:59:10.856Z,1.40
2023-03-19T23:01:46.353Z,1.73
2023-03-19T23:04:21.423Z,1.47
2023-03-19T23:06:48.388Z,1.50
2023-03-19T23:09:17.222Z,1.90
2023-03-19T23:11:44.056Z,1.47
2023-03-19T23:14:25.917Z,1.40
2023-03-19T23:19:38.340Z,1.30
2023-03-19T23:22:06.735Z,1.57
2023-03-19T23:24:33.833Z,1.40
2023-03-19T23:27:01.433Z,1.43
2023-03-19T23:29:35.995Z,1.93
2023-03-19T23:32:13.578Z,1.30
2023-03-19T23:34:56.419Z,1.40
2023-03-19T23:37:28.215Z,1.63
2023-03-19T23:39:54.717Z,1.53
2023-03-19T23:42:28.873Z,1.60
2023-03-19T23:44:57.890Z,1.60
2023-03-19T23:47:24.458Z,1.70
2023-03-19T23:49:51.163Z,1.40
2023-03-19T23:52:17.682Z,1.53
2023-03-19T23:54:44.192Z,1.60
2023-03-19T23:57:15.007Z,1.87
2023-03-19T23:59:49.305Z,1.90
